sensor_id;sensor_type;location;lat;lon;timestamp;P1;durP1;ratioP1;P2;durP2;ratioP2
83541;SDS011;73485;49.194;12.104;2024-01-06T00:01:31;16.52;;;8.10;;
83541;SDS011;73485;49.194;12.104;2024-01-06T00:03:59;15.35;;;8.77;;
83541;SDS011;73485;49.194;12.104;2024-01-06T00:06:27;15.80;;;8.77;;
83541;SDS011;73485;49.194;12.104;2024-01-06T00:08:55;15.40;;;8.40;;
83541;SDS011;73485;49.194;12.104;2024-01-06T00:11:22;16.17;;;8.38;;
83541;SDS011;73485;49.194;12.104;2024-01-06T00:13:50;13.25;;;8.20;;
83541;SDS011;73485;49.194;12.104;2024-01-06T00:16:19;16.80;;;8.85;;
83541;SDS011;73485;49.194;12.104;2024-01-06T00:18:47;17.50;;;8.02;;
83541;SDS011;73485;49.194;12.104;2024-01-06T00:21:15;12.30;;;6.88;;
83541;SDS011;73485;49.194;12.104;2024-01-06T00:23:43;13.93;;;7.75;;
83541;SDS011;73485;49.194;12.104;2024-01-06T00:26:10;22.13;;;8.55;;
83541;SDS011;73485;49.194;12.104;2024-01-06T00:28:38;14.10;;;6.70;;
83541;SDS011;73485;49.194;12.104;2024-01-06T00:31:06;15.98;;;7.05;;
83541;SDS011;73485;49.194;12.104;2024-01-06T00:33:35;22.52;;;9.00;;
83541;SDS011;73485;49.194;12.104;2024-01-06T00:36:03;15.63;;;8.30;;
83541;SDS011;73485;49.194;12.104;2024-01-06T00:38:32;21.15;;;10.00;;
83541;SDS011;73485;49.194;12.104;2024-01-06T00:41:00;14.32;;;8.88;;
83541;SDS011;73485;49.194;12.104;2024-01-06T00:43:28;15.32;;;8.63;;
83541;SDS011;73485;49.194;12.104;2024-01-06T00:45:55;15.25;;;8.07;;
83541;SDS011;73485;49.194;12.104;2024-01-06T00:48:23;16.10;;;8.07;;
83541;SDS011;73485;49.194;12.104;2024-01-06T00:50:52;19.63;;;8.68;;
83541;SDS011;73485;49.194;12.104;2024-01-06T00:53:21;15.25;;;8.50;;
83541;SDS011;73485;49.194;12.104;2024-01-06T00:55:48;16.35;;;8.38;;
83541;SDS011;73485;49.194;12.104;2024-01-06T00:58:16;20.92;;;9.77;;
83541;SDS011;73485;49.194;12.104;2024-01-06T01:00:44;14.50;;;7.90;;
83541;SDS011;73485;49.194;12.104;2024-01-06T01:03:11;12.35;;;7.35;;
83541;SDS011;73485;49.194;12.104;2024-01-06T01:05:39;19.30;;;8.68;;
83541;SDS011;73485;49.194;12.104;2024-01-06T01:08:08;16.52;;;8.65;;
83541;SDS011;73485;49.194;12.104;2024-01-06T01:10:36;18.25;;;9.40;;
83541;SDS011;73485;49.194;12.104;2024-01-06T01:13:04;12.52;;;7.82;;
83541;SDS011;73485;49.194;12.104;2024-01-06T01:15:31;15.75;;;8.07;;
83541;SDS011;73485;49.194;12.104;2024-01-06T01:17:59;15.88;;;8.95;;
83541;SDS011;73485;49.194;12.104;2024-01-06T01:20:27;15.00;;;8.18;;
83541;SDS011;73485;49.194;12.104;2024-01-06T01:22:54;14.98;;;8.35;;
83541;SDS011;73485;49.194;12.104;2024-01-06T01:25:23;14.85;;;8.60;;
83541;SDS011;73485;49.194;12.104;2024-01-06T01:27:51;13.35;;;8.30;;
83541;SDS011;73485;49.194;12.104;2024-01-06T01:30:19;19.52;;;10.18;;
83541;SDS011;73485;49.194;12.104;2024-01-06T01:32:47;18.38;;;9.00;;
83541;SDS011;73485;49.194;12.104;2024-01-06T01:35:14;16.75;;;8.95;;
83541;SDS011;73485;49.194;12.104;2024-01-06T01:37:42;19.13;;;9.32;;
83541;SDS011;73485;49.194;12.104;2024-01-06T01:40:10;14.43;;;8.05;;
83541;SDS011;73485;49.194;12.104;2024-01-06T01:42:40;16.10;;;9.02;;
83541;SDS011;73485;49.194;12.104;2024-01-06T01:45:08;17.92;;;9.52;;
83541;SDS011;73485;49.194;12.104;2024-01-06T01:47:38;16.92;;;9.98;;
83541;SDS011;73485;49.194;12.104;2024-01-06T01:50:07;21.67;;;10.20;;
83541;SDS011;73485;49.194;12.104;2024-01-06T01:52:35;14.60;;;9.18;;
83541;SDS011;73485;49.194;12.104;2024-01-06T01:55:04;18.33;;;10.40;;
83541;SDS011;73485;49.194;12.104;2024-01-06T01:57:32;19.33;;;10.40;;
83541;SDS011;73485;49.194;12.104;2024-01-06T02:00:01;16.85;;;10.10;;
83541;SDS011;73485;49.194;12.104;2024-01-06T02:02:30;19.77;;;10.10;;
83541;SDS011;73485;49.194;12.104;2024-01-06T02:04:58;19.25;;;10.40;;
83541;SDS011;73485;49.194;12.104;2024-01-06T02:07:26;21.05;;;11.75;;
83541;SDS011;73485;49.194;12.104;2024-01-06T02:09:53;20.00;;;10.98;;
83541;SDS011;73485;49.194;12.104;2024-01-06T02:12:21;20.83;;;11.60;;
83541;SDS011;73485;49.194;12.104;2024-01-06T02:14:49;18.98;;;10.23;;
83541;SDS011;73485;49.194;12.104;2024-01-06T02:17:18;16.15;;;8.98;;
83541;SDS011;73485;49.194;12.104;2024-01-06T02:19:45;18.65;;;8.57;;
83541;SDS011;73485;49.194;12.104;2024-01-06T02:22:15;17.92;;;9.65;;
83541;SDS011;73485;49.194;12.104;2024-01-06T02:24:43;17.05;;;8.88;;
83541;SDS011;73485;49.194;12.104;2024-01-06T02:27:11;19.85;;;9.20;;
83541;SDS011;73485;49.194;12.104;2024-01-06T02:29:38;17.75;;;8.90;;
83541;SDS011;73485;49.194;12.104;2024-01-06T02:32:06;16.52;;;8.65;;
83541;SDS011;73485;49.194;12.104;2024-01-06T02:34:33;15.10;;;8.70;;
83541;SDS011;73485;49.194;12.104;2024-01-06T02:37:01;14.45;;;9.32;;
83541;SDS011;73485;49.194;12.104;2024-01-06T02:39:30;17.63;;;8.85;;
83541;SDS011;73485;49.194;12.104;2024-01-06T02:41:58;15.27;;;9.05;;
83541;SDS011;73485;49.194;12.104;2024-01-06T02:44:26;20.20;;;9.55;;
83541;SDS011;73485;49.194;12.104;2024-01-06T02:46:53;14.82;;;9.63;;
83541;SDS011;73485;49.194;12.104;2024-01-06T02:49:21;12.60;;;7.75;;
83541;SDS011;73485;49.194;12.104;2024-01-06T02:51:49;17.13;;;8.63;;
83541;SDS011;73485;49.194;12.104;2024-01-06T02:54:17;20.95;;;10.18;;
83541;SDS011;73485;49.194;12.104;2024-01-06T02:56:46;12.52;;;8.57;;
83541;SDS011;73485;49.194;12.104;2024-01-06T02:59:13;17.33;;;9.10;;
83541;SDS011;73485;49.194;12.104;2024-01-06T03:01:41;15.43;;;9.63;;
83541;SDS011;73485;49.194;12.104;2024-01-06T03:04:09;16.60;;;9.85;;
83541;SDS011;73485;49.194;12.104;2024-01-06T03:06:37;18.42;;;9.57;;
83541;SDS011;73485;49.194;12.104;2024-01-06T03:09:04;20.67;;;10.40;;
83541;SDS011;73485;49.194;12.104;2024-01-06T03:11:32;15.63;;;8.60;;
83541;SDS011;73485;49.194;12.104;2024-01-06T03:14:01;20.73;;;9.75;;
83541;SDS011;73485;49.194;12.104;2024-01-06T03:16:29;18.50;;;9.35;;
83541;SDS011;73485;49.194;12.104;2024-01-06T03:18:56;17.05;;;9.20;;
83541;SDS011;73485;49.194;12.104;2024-01-06T03:21:24;16.73;;;8.93;;
83541;SDS011;73485;49.194;12.104;2024-01-06T03:23:52;15.77;;;8.05;;
83541;SDS011;73485;49.194;12.104;2024-01-06T03:26:21;16.80;;;8.88;;
83541;SDS011;73485;49.194;12.104;2024-01-06T03:28:49;17.13;;;8.55;;
83541;SDS011;73485;49.194;12.104;2024-01-06T03:31:18;14.63;;;8.18;;
83541;SDS011;73485;49.194;12.104;2024-01-06T03:33:48;15.98;;;9.55;;
83541;SDS011;73485;49.194;12.104;2024-01-06T03:36:17;19.13;;;9.18;;
83541;SDS011;73485;49.194;12.104;2024-01-06T03:38:45;16.42;;;9.60;;
83541;SDS011;73485;49.194;12.104;2024-01-06T03:41:13;16.58;;;9.23;;
83541;SDS011;73485;49.194;12.104;2024-01-06T03:43:40;18.00;;;9.80;;
83541;SDS011;73485;49.194;12.104;2024-01-06T03:46:08;17.92;;;9.75;;
83541;SDS011;73485;49.194;12.104;2024-01-06T03:48:37;17.98;;;9.50;;
83541;SDS011;73485;49.194;12.104;2024-01-06T03:51:06;17.92;;;10.30;;
83541;SDS011;73485;49.194;12.104;2024-01-06T03:53:34;22.27;;;9.90;;
83541;SDS011;73485;49.194;12.104;2024-01-06T03:56:03;20.65;;;9.70;;
83541;SDS011;73485;49.194;12.104;2024-01-06T03:58:31;15.18;;;8.68;;
83541;SDS011;73485;49.194;12.104;2024-01-06T04:00:59;20.10;;;9.20;;
83541;SDS011;73485;49.194;12.104;2024-01-06T04:03:27;15.90;;;9.60;;
83541;SDS011;73485;49.194;12.104;2024-01-06T04:05:56;17.98;;;9.52;;
83541;SDS011;73485;49.194;12.104;2024-01-06T04:08:24;12.57;;;8.13;;
83541;SDS011;73485;49.194;12.104;2024-01-06T04:10:51;20.10;;;9.48;;
83541;SDS011;73485;49.194;12.104;2024-01-06T04:13:19;19.45;;;8.93;;
83541;SDS011;73485;49.194;12.104;2024-01-06T04:15:46;17.67;;;8.75;;
83541;SDS011;73485;49.194;12.104;2024-01-06T04:18:14;14.45;;;8.48;;
83541;SDS011;73485;49.194;12.104;2024-01-06T04:20:42;16.38;;;8.40;;
83541;SDS011;73485;49.194;12.104;2024-01-06T04:23:11;16.58;;;8.95;;
83541;SDS011;73485;49.194;12.104;2024-01-06T04:25:38;18.30;;;8.73;;
83541;SDS011;73485;49.194;12.104;2024-01-06T04:28:06;13.82;;;9.48;;
83541;SDS011;73485;49.194;12.104;2024-01-06T04:30:34;12.45;;;7.85;;
83541;SDS011;73485;49.194;12.104;2024-01-06T04:33:01;14.30;;;8.85;;
83541;SDS011;73485;49.194;12.104;2024-01-06T04:35:29;16.75;;;9.15;;
83541;SDS011;73485;49.194;12.104;2024-01-06T04:37:57;20.30;;;8.07;;
83541;SDS011;73485;49.194;12.104;2024-01-06T04:40:26;16.85;;;8.45;;
83541;SDS011;73485;49.194;12.104;2024-01-06T04:42:54;15.43;;;8.38;;
83541;SDS011;73485;49.194;12.104;2024-01-06T04:45:21;15.02;;;8.00;;
83541;SDS011;73485;49.194;12.104;2024-01-06T04:47:50;16.02;;;7.82;;
83541;SDS011;73485;49.194;12.104;2024-01-06T04:50:19;13.13;;;8.82;;
83541;SDS011;73485;49.194;12.104;2024-01-06T04:52:46;16.45;;;8.93;;
83541;SDS011;73485;49.194;12.104;2024-01-06T04:55:14;18.65;;;9.10;;
83541;SDS011;73485;49.194;12.104;2024-01-06T04:57:43;15.38;;;8.38;;
83541;SDS011;73485;49.194;12.104;2024-01-06T05:00:11;16.10;;;8.30;;
83541;SDS011;73485;49.194;12.104;2024-01-06T05:02:40;18.58;;;9.68;;
83541;SDS011;73485;49.194;12.104;2024-01-06T05:05:08;12.70;;;8.20;;
83541;SDS011;73485;49.194;12.104;2024-01-06T05:07:36;13.63;;;8.38;;
83541;SDS011;73485;49.194;12.104;2024-01-06T05:10:03;16.48;;;8.25;;
83541;SDS011;73485;49.194;12.104;2024-01-06T05:12:31;18.65;;;8.65;;
83541;SDS011;73485;49.194;12.104;2024-01-06T05:15:00;12.88;;;8.38;;
83541;SDS011;73485;49.194;12.104;2024-01-06T05:17:27;16.05;;;8.02;;
83541;SDS011;73485;49.194;12.104;2024-01-06T05:19:55;13.55;;;7.97;;
83541;SDS011;73485;49.194;12.104;2024-01-06T05:22:23;13.63;;;7.85;;
83541;SDS011;73485;49.194;12.104;2024-01-06T05:24:51;12.45;;;7.70;;
83541;SDS011;73485;49.194;12.104;2024-01-06T05:27:19;14.85;;;8.15;;
83541;SDS011;73485;49.194;12.104;2024-01-06T05:29:47;15.30;;;9.07;;
83541;SDS011;73485;49.194;12.104;2024-01-06T05:32:17;18.15;;;8.35;;
83541;SDS011;73485;49.194;12.104;2024-01-06T05:34:45;15.63;;;8.88;;
83541;SDS011;73485;49.194;12.104;2024-01-06T05:37:13;13.40;;;8.13;;
83541;SDS011;73485;49.194;12.104;2024-01-06T05:39:41;14.77;;;8.25;;
83541;SDS011;73485;49.194;12.104;2024-01-06T05:42:09;19.73;;;8.57;;
83541;SDS011;73485;49.194;12.104;2024-01-06T05:44:37;15.52;;;8.63;;
83541;SDS011;73485;49.194;12.104;2024-01-06T05:47:05;15.38;;;8.80;;
83541;SDS011;73485;49.194;12.104;2024-01-06T05:49:35;12.93;;;8.15;;
83541;SDS011;73485;49.194;12.104;2024-01-06T05:52:04;14.73;;;9.35;;
83541;SDS011;73485;49.194;12.104;2024-01-06T05:54:31;17.20;;;8.48;;
83541;SDS011;73485;49.194;12.104;2024-01-06T05:56:59;12.88;;;8.35;;
83541;SDS011;73485;49.194;12.104;2024-01-06T05:59:26;12.60;;;8.05;;
83541;SDS011;73485;49.194;12.104;2024-01-06T06:01:54;18.33;;;8.88;;
83541;SDS011;73485;49.194;12.104;2024-01-06T06:04:22;13.65;;;7.95;;
83541;SDS011;73485;49.194;12.104;2024-01-06T06:06:51;13.82;;;8.73;;
83541;SDS011;73485;49.194;12.104;2024-01-06T06:09:19;16.25;;;8.98;;
83541;SDS011;73485;49.194;12.104;2024-01-06T06:11:48;13.07;;;7.90;;
83541;SDS011;73485;49.194;12.104;2024-01-06T06:14:15;14.98;;;9.10;;
83541;SDS011;73485;49.194;12.104;2024-01-06T06:16:43;15.70;;;8.70;;
83541;SDS011;73485;49.194;12.104;2024-01-06T06:19:10;24.77;;;10.05;;
83541;SDS011;73485;49.194;12.104;2024-01-06T06:21:38;15.85;;;8.77;;
83541;SDS011;73485;49.194;12.104;2024-01-06T06:24:07;16.52;;;8.85;;
83541;SDS011;73485;49.194;12.104;2024-01-06T06:26:35;15.10;;;8.98;;
83541;SDS011;73485;49.194;12.104;2024-01-06T06:29:06;16.35;;;7.53;;
83541;SDS011;73485;49.194;12.104;2024-01-06T06:31:33;18.88;;;9.40;;
83541;SDS011;73485;49.194;12.104;2024-01-06T06:34:01;11.85;;;8.10;;
83541;SDS011;73485;49.194;12.104;2024-01-06T06:36:34;16.77;;;8.48;;
83541;SDS011;73485;49.194;12.104;2024-01-06T06:39:02;16.52;;;9.23;;
83541;SDS011;73485;49.194;12.104;2024-01-06T06:41:31;16.27;;;8.05;;
83541;SDS011;73485;49.194;12.104;2024-01-06T06:43:59;13.90;;;8.68;;
83541;SDS011;73485;49.194;12.104;2024-01-06T06:46:27;15.60;;;9.52;;
83541;SDS011;73485;49.194;12.104;2024-01-06T06:48:54;18.92;;;10.75;;
83541;SDS011;73485;49.194;12.104;2024-01-06T06:51:22;20.95;;;10.10;;
83541;SDS011;73485;49.194;12.104;2024-01-06T06:53:53;18.70;;;9.43;;
83541;SDS011;73485;49.194;12.104;2024-01-06T06:56:20;13.90;;;8.63;;
83541;SDS011;73485;49.194;12.104;2024-01-06T06:58:49;15.18;;;8.55;;
83541;SDS011;73485;49.194;12.104;2024-01-06T07:01:17;16.73;;;8.43;;
83541;SDS011;73485;49.194;12.104;2024-01-06T07:03:45;14.30;;;8.98;;
83541;SDS011;73485;49.194;12.104;2024-01-06T07:06:12;16.23;;;8.82;;
83541;SDS011;73485;49.194;12.104;2024-01-06T07:08:41;15.57;;;9.07;;
83541;SDS011;73485;49.194;12.104;2024-01-06T07:11:08;15.55;;;7.50;;
83541;SDS011;73485;49.194;12.104;2024-01-06T07:13:37;15.82;;;8.60;;
83541;SDS011;73485;49.194;12.104;2024-01-06T07:16:06;15.85;;;8.32;;
83541;SDS011;73485;49.194;12.104;2024-01-06T07:18:44;14.00;;;7.93;;
83541;SDS011;73485;49.194;12.104;2024-01-06T07:21:12;15.43;;;7.63;;
83541;SDS011;73485;49.194;12.104;2024-01-06T07:23:40;14.10;;;7.63;;
83541;SDS011;73485;49.194;12.104;2024-01-06T07:26:08;12.30;;;7.70;;
83541;SDS011;73485;49.194;12.104;2024-01-06T07:28:36;12.95;;;7.38;;
83541;SDS011;73485;49.194;12.104;2024-01-06T07:31:04;14.27;;;7.32;;
83541;SDS011;73485;49.194;12.104;2024-01-06T07:33:34;13.85;;;7.82;;
83541;SDS011;73485;49.194;12.104;2024-01-06T07:36:01;12.88;;;7.43;;
83541;SDS011;73485;49.194;12.104;2024-01-06T07:38:30;11.88;;;7.43;;
83541;SDS011;73485;49.194;12.104;2024-01-06T07:40:57;14.52;;;7.45;;
83541;SDS011;73485;49.194;12.104;2024-01-06T07:43:25;12.40;;;8.40;;
83541;SDS011;73485;49.194;12.104;2024-01-06T07:45:53;12.77;;;6.93;;
83541;SDS011;73485;49.194;12.104;2024-01-06T07:48:21;12.13;;;6.97;;
83541;SDS011;73485;49.194;12.104;2024-01-06T07:50:50;15.32;;;7.53;;
83541;SDS011;73485;49.194;12.104;2024-01-06T07:53:18;13.93;;;7.30;;
83541;SDS011;73485;49.194;12.104;2024-01-06T07:55:45;12.25;;;7.10;;
83541;SDS011;73485;49.194;12.104;2024-01-06T07:58:13;13.55;;;7.70;;
83541;SDS011;73485;49.194;12.104;2024-01-06T08:00:42;21.33;;;8.65;;
83541;SDS011;73485;49.194;12.104;2024-01-06T08:03:10;18.23;;;8.55;;
83541;SDS011;73485;49.194;12.104;2024-01-06T08:05:38;17.25;;;9.50;;
83541;SDS011;73485;49.194;12.104;2024-01-06T08:08:07;15.20;;;9.23;;
83541;SDS011;73485;49.194;12.104;2024-01-06T08:10:35;18.20;;;8.40;;
83541;SDS011;73485;49.194;12.104;2024-01-06T08:13:02;14.52;;;8.82;;
83541;SDS011;73485;49.194;12.104;2024-01-06T08:15:30;17.23;;;9.52;;
83541;SDS011;73485;49.194;12.104;2024-01-06T08:17:58;18.88;;;10.80;;
83541;SDS011;73485;49.194;12.104;2024-01-06T08:20:26;18.95;;;10.48;;
83541;SDS011;73485;49.194;12.104;2024-01-06T08:22:54;16.25;;;10.30;;
83541;SDS011;73485;49.194;12.104;2024-01-06T08:25:23;13.43;;;8.43;;
83541;SDS011;73485;49.194;12.104;2024-01-06T08:27:51;15.68;;;8.13;;
83541;SDS011;73485;49.194;12.104;2024-01-06T08:30:19;15.82;;;8.88;;
83541;SDS011;73485;49.194;12.104;2024-01-06T08:32:47;14.73;;;8.27;;
83541;SDS011;73485;49.194;12.104;2024-01-06T08:35:15;18.75;;;10.88;;
83541;SDS011;73485;49.194;12.104;2024-01-06T08:37:43;13.35;;;8.45;;
83541;SDS011;73485;49.194;12.104;2024-01-06T08:40:11;19.00;;;8.60;;
83541;SDS011;73485;49.194;12.104;2024-01-06T08:42:40;10.93;;;6.80;;
83541;SDS011;73485;49.194;12.104;2024-01-06T08:45:08;13.35;;;8.32;;
83541;SDS011;73485;49.194;12.104;2024-01-06T08:47:36;14.60;;;6.07;;
83541;SDS011;73485;49.194;12.104;2024-01-06T08:50:04;10.70;;;6.03;;
83541;SDS011;73485;49.194;12.104;2024-01-06T08:52:33;14.15;;;7.40;;
83541;SDS011;73485;49.194;12.104;2024-01-06T08:55:01;10.68;;;7.25;;
83541;SDS011;73485;49.194;12.104;2024-01-06T08:57:29;15.00;;;8.88;;
83541;SDS011;73485;49.194;12.104;2024-01-06T08:59:58;14.70;;;8.68;;
83541;SDS011;73485;49.194;12.104;2024-01-06T09:02:25;20.27;;;9.57;;
83541;SDS011;73485;49.194;12.104;2024-01-06T09:04:53;15.65;;;9.52;;
83541;SDS011;73485;49.194;12.104;2024-01-06T09:07:21;19.00;;;8.73;;
83541;SDS011;73485;49.194;12.104;2024-01-06T09:09:48;17.08;;;8.32;;
83541;SDS011;73485;49.194;12.104;2024-01-06T09:12:17;17.13;;;10.15;;
83541;SDS011;73485;49.194;12.104;2024-01-06T09:14:45;14.23;;;9.77;;
83541;SDS011;73485;49.194;12.104;2024-01-06T09:17:15;17.42;;;10.32;;
83541;SDS011;73485;49.194;12.104;2024-01-06T09:19:43;15.10;;;9.38;;
83541;SDS011;73485;49.194;12.104;2024-01-06T09:22:10;25.38;;;8.65;;
83541;SDS011;73485;49.194;12.104;2024-01-06T09:24:39;13.50;;;7.50;;
83541;SDS011;73485;49.194;12.104;2024-01-06T09:27:07;13.98;;;7.32;;
83541;SDS011;73485;49.194;12.104;2024-01-06T09:29:34;12.88;;;6.97;;
83541;SDS011;73485;49.194;12.104;2024-01-06T09:32:02;14.32;;;8.10;;
83541;SDS011;73485;49.194;12.104;2024-01-06T09:34:31;14.85;;;7.25;;
83541;SDS011;73485;49.194;12.104;2024-01-06T09:37:04;12.85;;;6.20;;
83541;SDS011;73485;49.194;12.104;2024-01-06T09:39:32;14.60;;;7.10;;
83541;SDS011;73485;49.194;12.104;2024-01-06T09:42:00;11.93;;;7.95;;
83541;SDS011;73485;49.194;12.104;2024-01-06T09:44:28;14.93;;;7.95;;
83541;SDS011;73485;49.194;12.104;2024-01-06T09:46:55;12.88;;;7.88;;
83541;SDS011;73485;49.194;12.104;2024-01-06T09:49:25;13.25;;;7.95;;
83541;SDS011;73485;49.194;12.104;2024-01-06T09:51:58;12.30;;;7.40;;
83541;SDS011;73485;49.194;12.104;2024-01-06T09:54:28;15.25;;;8.85;;
83541;SDS011;73485;49.194;12.104;2024-01-06T09:57:00;14.63;;;9.02;;
83541;SDS011;73485;49.194;12.104;2024-01-06T09:59:29;22.73;;;9.57;;
83541;SDS011;73485;49.194;12.104;2024-01-06T10:02:01;14.25;;;8.75;;
83541;SDS011;73485;49.194;12.104;2024-01-06T10:04:29;16.88;;;10.25;;
83541;SDS011;73485;49.194;12.104;2024-01-06T10:06:58;22.42;;;12.52;;
83541;SDS011;73485;49.194;12.104;2024-01-06T10:09:26;17.92;;;11.18;;
83541;SDS011;73485;49.194;12.104;2024-01-06T10:11:55;19.15;;;9.77;;
83541;SDS011;73485;49.194;12.104;2024-01-06T10:14:23;16.85;;;9.65;;
83541;SDS011;73485;49.194;12.104;2024-01-06T10:16:52;15.30;;;9.45;;
83541;SDS011;73485;49.194;12.104;2024-01-06T10:19:20;14.80;;;8.73;;
83541;SDS011;73485;49.194;12.104;2024-01-06T10:21:48;18.77;;;8.70;;
83541;SDS011;73485;49.194;12.104;2024-01-06T10:24:18;15.00;;;8.35;;
83541;SDS011;73485;49.194;12.104;2024-01-06T10:26:46;13.18;;;7.95;;
83541;SDS011;73485;49.194;12.104;2024-01-06T10:29:13;14.32;;;7.80;;
83541;SDS011;73485;49.194;12.104;2024-01-06T10:31:41;14.13;;;7.88;;
83541;SDS011;73485;49.194;12.104;2024-01-06T10:34:09;11.77;;;7.43;;
83541;SDS011;73485;49.194;12.104;2024-01-06T10:36:37;10.35;;;6.00;;
83541;SDS011;73485;49.194;12.104;2024-01-06T10:39:04;11.13;;;6.45;;
83541;SDS011;73485;49.194;12.104;2024-01-06T10:41:34;9.48;;;5.90;;
83541;SDS011;73485;49.194;12.104;2024-01-06T10:44:04;10.70;;;6.93;;
83541;SDS011;73485;49.194;12.104;2024-01-06T10:46:32;16.63;;;8.30;;
83541;SDS011;73485;49.194;12.104;2024-01-06T10:49:00;19.23;;;8.82;;
83541;SDS011;73485;49.194;12.104;2024-01-06T10:51:28;18.92;;;9.60;;
83541;SDS011;73485;49.194;12.104;2024-01-06T10:53:57;12.55;;;7.97;;
83541;SDS011;73485;49.194;12.104;2024-01-06T10:56:25;15.25;;;8.73;;
83541;SDS011;73485;49.194;12.104;2024-01-06T10:58:54;12.77;;;6.82;;
83541;SDS011;73485;49.194;12.104;2024-01-06T11:01:23;10.60;;;6.18;;
83541;SDS011;73485;49.194;12.104;2024-01-06T11:03:55;12.50;;;7.65;;
83541;SDS011;73485;49.194;12.104;2024-01-06T11:06:23;9.38;;;6.00;;
83541;SDS011;73485;49.194;12.104;2024-01-06T11:08:53;9.02;;;6.18;;
83541;SDS011;73485;49.194;12.104;2024-01-06T11:11:24;11.77;;;6.32;;
83541;SDS011;73485;49.194;12.104;2024-01-06T11:13:52;15.05;;;7.25;;
83541;SDS011;73485;49.194;12.104;2024-01-06T11:16:37;12.30;;;6.25;;
83541;SDS011;73485;49.194;12.104;2024-01-06T11:19:41;11.13;;;7.45;;
83541;SDS011;73485;49.194;12.104;2024-01-06T11:22:20;13.35;;;7.20;;
83541;SDS011;73485;49.194;12.104;2024-01-06T11:24:49;10.68;;;6.40;;
83541;SDS011;73485;49.194;12.104;2024-01-06T11:27:17;11.13;;;6.32;;
83541;SDS011;73485;49.194;12.104;2024-01-06T11:29:46;9.90;;;6.20;;
83541;SDS011;73485;49.194;12.104;2024-01-06T11:32:18;12.38;;;6.65;;
83541;SDS011;73485;49.194;12.104;2024-01-06T11:34:47;12.45;;;6.65;;
83541;SDS011;73485;49.194;12.104;2024-01-06T11:37:17;9.77;;;5.82;;
83541;SDS011;73485;49.194;12.104;2024-01-06T11:39:45;8.88;;;4.57;;
83541;SDS011;73485;49.194;12.104;2024-01-06T11:42:13;8.82;;;4.40;;
83541;SDS011;73485;49.194;12.104;2024-01-06T11:44:43;8.63;;;3.53;;
83541;SDS011;73485;49.194;12.104;2024-01-06T11:47:11;8.32;;;3.67;;
83541;SDS011;73485;49.194;12.104;2024-01-06T11:49:42;6.93;;;3.67;;
83541;SDS011;73485;49.194;12.104;2024-01-06T11:52:12;14.25;;;5.20;;
83541;SDS011;73485;49.194;12.104;2024-01-06T11:54:40;5.47;;;2.92;;
83541;SDS011;73485;49.194;12.104;2024-01-06T11:57:08;8.57;;;4.38;;
83541;SDS011;73485;49.194;12.104;2024-01-06T11:59:36;10.57;;;3.80;;
83541;SDS011;73485;49.194;12.104;2024-01-06T12:02:04;9.73;;;4.57;;
83541;SDS011;73485;49.194;12.104;2024-01-06T12:04:32;12.23;;;4.20;;
83541;SDS011;73485;49.194;12.104;2024-01-06T12:07:08;6.82;;;3.90;;
83541;SDS011;73485;49.194;12.104;2024-01-06T12:09:36;8.07;;;3.65;;
83541;SDS011;73485;49.194;12.104;2024-01-06T12:12:04;10.48;;;3.17;;
83541;SDS011;73485;49.194;12.104;2024-01-06T12:14:32;8.68;;;3.33;;
83541;SDS011;73485;49.194;12.104;2024-01-06T12:17:00;5.05;;;3.42;;
83541;SDS011;73485;49.194;12.104;2024-01-06T12:19:29;6.10;;;2.78;;
83541;SDS011;73485;49.194;12.104;2024-01-06T12:22:01;5.38;;;2.40;;
83541;SDS011;73485;49.194;12.104;2024-01-06T12:24:30;4.60;;;2.95;;
83541;SDS011;73485;49.194;12.104;2024-01-06T12:26:58;6.70;;;3.45;;
83541;SDS011;73485;49.194;12.104;2024-01-06T12:29:26;4.78;;;3.08;;
83541;SDS011;73485;49.194;12.104;2024-01-06T12:31:55;7.90;;;2.80;;
83541;SDS011;73485;49.194;12.104;2024-01-06T12:34:23;7.57;;;4.30;;
83541;SDS011;73485;49.194;12.104;2024-01-06T12:36:52;7.38;;;3.65;;
83541;SDS011;73485;49.194;12.104;2024-01-06T12:39:21;13.25;;;4.10;;
83541;SDS011;73485;49.194;12.104;2024-01-06T12:41:51;11.77;;;3.92;;
83541;SDS011;73485;49.194;12.104;2024-01-06T12:44:19;13.40;;;5.38;;
83541;SDS011;73485;49.194;12.104;2024-01-06T12:46:47;16.25;;;6.38;;
83541;SDS011;73485;49.194;12.104;2024-01-06T12:49:15;18.55;;;6.50;;
83541;SDS011;73485;49.194;12.104;2024-01-06T12:51:42;11.85;;;4.93;;
83541;SDS011;73485;49.194;12.104;2024-01-06T12:54:10;6.45;;;4.50;;
83541;SDS011;73485;49.194;12.104;2024-01-06T12:56:38;8.52;;;4.70;;
83541;SDS011;73485;49.194;12.104;2024-01-06T12:59:07;9.70;;;4.90;;
83541;SDS011;73485;49.194;12.104;2024-01-06T13:01:35;8.85;;;4.05;;
83541;SDS011;73485;49.194;12.104;2024-01-06T13:04:03;9.52;;;4.95;;
83541;SDS011;73485;49.194;12.104;2024-01-06T13:06:31;10.32;;;4.97;;
83541;SDS011;73485;49.194;12.104;2024-01-06T13:08:58;8.73;;;4.53;;
83541;SDS011;73485;49.194;12.104;2024-01-06T13:11:28;10.63;;;5.53;;
83541;SDS011;73485;49.194;12.104;2024-01-06T13:13:56;9.27;;;4.72;;
83541;SDS011;73485;49.194;12.104;2024-01-06T13:16:25;10.40;;;4.28;;
83541;SDS011;73485;49.194;12.104;2024-01-06T13:18:53;12.32;;;4.50;;
83541;SDS011;73485;49.194;12.104;2024-01-06T13:21:21;8.82;;;4.05;;
83541;SDS011;73485;49.194;12.104;2024-01-06T13:23:49;11.27;;;4.22;;
83541;SDS011;73485;49.194;12.104;2024-01-06T13:26:16;6.72;;;3.85;;
83541;SDS011;73485;49.194;12.104;2024-01-06T13:28:44;6.97;;;4.32;;
83541;SDS011;73485;49.194;12.104;2024-01-06T13:31:12;8.20;;;3.65;;
83541;SDS011;73485;49.194;12.104;2024-01-06T13:33:41;4.78;;;3.08;;
83541;SDS011;73485;49.194;12.104;2024-01-06T13:36:09;7.10;;;4.20;;
83541;SDS011;73485;49.194;12.104;2024-01-06T13:38:36;9.60;;;3.53;;
83541;SDS011;73485;49.194;12.104;2024-01-06T13:41:04;7.80;;;3.92;;
83541;SDS011;73485;49.194;12.104;2024-01-06T13:43:33;9.43;;;4.10;;
83541;SDS011;73485;49.194;12.104;2024-01-06T13:46:01;9.27;;;3.13;;
83541;SDS011;73485;49.194;12.104;2024-01-06T13:48:29;17.55;;;5.55;;
83541;SDS011;73485;49.194;12.104;2024-01-06T13:50:58;9.65;;;4.82;;
83541;SDS011;73485;49.194;12.104;2024-01-06T13:53:26;18.55;;;6.90;;
83541;SDS011;73485;49.194;12.104;2024-01-06T13:55:54;13.25;;;5.43;;
83541;SDS011;73485;49.194;12.104;2024-01-06T13:58:21;7.00;;;3.88;;
83541;SDS011;73485;49.194;12.104;2024-01-06T14:00:49;8.65;;;3.42;;
83541;SDS011;73485;49.194;12.104;2024-01-06T14:03:17;6.68;;;3.72;;
83541;SDS011;73485;49.194;12.104;2024-01-06T14:05:44;6.25;;;3.13;;
83541;SDS011;73485;49.194;12.104;2024-01-06T14:08:13;9.23;;;4.60;;
83541;SDS011;73485;49.194;12.104;2024-01-06T14:10:41;8.43;;;4.68;;
83541;SDS011;73485;49.194;12.104;2024-01-06T14:13:09;9.38;;;4.53;;
83541;SDS011;73485;49.194;12.104;2024-01-06T14:15:36;9.77;;;4.65;;
83541;SDS011;73485;49.194;12.104;2024-01-06T14:18:04;7.15;;;4.97;;
83541;SDS011;73485;49.194;12.104;2024-01-06T14:20:32;8.82;;;4.22;;
83541;SDS011;73485;49.194;12.104;2024-01-06T14:23:04;10.63;;;3.83;;
83541;SDS011;73485;49.194;12.104;2024-01-06T14:25:33;6.05;;;3.55;;
83541;SDS011;73485;49.194;12.104;2024-01-06T14:28:00;10.68;;;4.20;;
83541;SDS011;73485;49.194;12.104;2024-01-06T14:30:28;5.60;;;3.17;;